Погода Дермина неделю

Влёра, Албания

24 - 30 июня
  • 24июня
    Сегодня
    +26°
    +37°
    Ясно и безоблачно
    ВремяПогодаТемператураВлажностьДавлениеВетер, м/сВероятность осадков
    02:00Ясно и безоблачно+29°C73 %751 мм1.0 м/с2 %
    05:00Ясно и безоблачно+28°C75 %751 мм0.6 м/с2 %
    08:00Ясно и безоблачно+28°C68 %752 мм1.3 м/с2 %
    11:00Ясно и безоблачно+32°C71 %752 мм2.0 м/с2 %
    14:00Ясно и безоблачно+36°C61 %752 мм2.2 м/с2 %
    17:00Ясно и безоблачно+35°C68 %752 мм2.0 м/с2 %
    20:00Ясно и безоблачно+33°C71 %753 мм0.1 м/с2 %
    23:00Ясно и безоблачно+29°C79 %754 мм0.4 м/с2 %
  • 25июня
    Вторник
    +27°
    +37°
    Облачно с прояснениями
    ВремяПогодаТемператураВлажностьДавлениеВетер, м/сВероятность осадков
    02:00Ясно и безоблачно+28°C83 %754 мм0.5 м/с2 %
    05:00Ясно и безоблачно+26°C85 %754 мм0.5 м/с2 %
    08:00Ясно и безоблачно+27°C74 %754 мм0.7 м/с2 %
    11:00Ясно и безоблачно+33°C65 %755 мм1.5 м/с2 %
    14:00Облачно с прояснениями+36°C61 %755 мм1.9 м/с4 %
    17:00Небольшая облачность+36°C59 %755 мм1.7 м/с7 %
    20:00Облачно с прояснениями+33°C72 %754 мм1.0 м/с1 %
    23:00Ясно и безоблачно+30°C66 %754 мм0.5 м/с2 %
  • 26июня
    Среда
    +26°
    +37°
    Ясно и безоблачно
    ВремяПогодаТемператураВлажностьДавлениеВетер, м/сВероятность осадков
    02:00Ясно и безоблачно+30°C61 %753 мм0.8 м/с2 %
    05:00Ясно и безоблачно+29°C59 %753 мм0.9 м/с2 %
    08:00Ясно и безоблачно+29°C53 %754 мм1.7 м/с2 %
    11:00Практически безоблачно+34°C46 %754 мм1.3 м/с6 %
    14:00Ясно и безоблачно+36°C53 %754 мм1.3 м/с13 %
    17:00Ясно и безоблачно+37°C48 %753 мм1.6 м/с9 %
    20:00Ясно и безоблачно+33°C66 %753 мм1.0 м/с3 %
    23:00Ясно и безоблачно+29°C76 %753 мм1.7 м/с2 %
  • 27июня
    Четверг
    +24°
    +34°
    Ясно и безоблачно
    ВремяПогодаТемператураВлажностьДавлениеВетер, м/сВероятность осадков
    02:00Ясно и безоблачно+29°C69 %753 мм2.1 м/с2 %
    05:00Ясно и безоблачно+27°C66 %752 мм1.5 м/с2 %
    08:00Ясно и безоблачно+26°C59 %753 мм0.8 м/с2 %
    11:00Практически безоблачно+31°C59 %753 мм2.4 м/с8 %
    14:00Ясно и безоблачно+34°C67 %753 мм2.5 м/с23 %
    17:00Ясно и безоблачно+33°C71 %753 мм2.5 м/с28 %
    20:00Ясно и безоблачно+32°C84 %753 мм0.4 м/с10 %
    23:00Ясно и безоблачно+28°C79 %754 мм1.8 м/с2 %
  • 28июня
    Пятница
    +26°
    +36°
    Ясно и безоблачно
    ВремяПогодаТемператураВлажностьДавлениеВетер, м/сВероятность осадков
    02:00Практически безоблачно+26°C85 %753 мм2.8 м/с2 %
    05:00Небольшая облачность+25°C86 %753 мм3.3 м/с3 %
    08:00Ясно и безоблачно+26°C66 %754 мм1.9 м/с2 %
    11:00Ясно и безоблачно+32°C52 %754 мм3.2 м/с5 %
    14:00Ясно и безоблачно+36°C52 %753 мм4.7 м/с23 %
    17:00Ясно и безоблачно+35°C53 %753 мм4.3 м/с19 %
    20:00Ясно и безоблачно+32°C62 %753 мм2.6 м/с2 %
    23:00Ясно и безоблачно+28°C77 %754 мм3.5 м/с2 %
Мы используем cookies
Соглашаюсь